createdAt,value
2022-12-17T00:00:50.998Z,169.35
2022-12-17T00:03:40.422Z,217.18
2022-12-17T00:06:29.369Z,229.70
2022-12-17T00:09:25.983Z,193.17
2022-12-17T00:12:13.892Z,173.10
2022-12-17T00:15:01.496Z,163.88
2022-12-17T00:17:48.001Z,158.10
2022-12-17T00:20:35.062Z,164.40
2022-12-17T00:23:23.350Z,168.98
2022-12-17T00:26:12.671Z,177.95
2022-12-17T00:28:59.699Z,169.10
2022-12-17T00:31:49.099Z,171.13
2022-12-17T00:34:35.148Z,155.27
2022-12-17T00:37:21.968Z,168.82
2022-12-17T00:40:12.003Z,158.00
2022-12-17T00:43:02.225Z,158.02
2022-12-17T00:45:49.407Z,165.32
2022-12-17T00:48:36.235Z,171.15
2022-12-17T00:51:23.119Z,169.45
2022-12-17T00:56:57.078Z,159.07
2022-12-17T00:59:46.890Z,158.85
2022-12-17T01:02:34.792Z,160.27
2022-12-17T01:05:23.887Z,154.73
2022-12-17T01:08:11.645Z,162.90
2022-12-17T01:10:59.023Z,165.37
2022-12-17T01:13:46.723Z,164.13
2022-12-17T01:16:37.058Z,163.65
2022-12-17T01:19:23.038Z,163.90
2022-12-17T01:25:01.532Z,158.88
2022-12-17T01:27:48.283Z,164.70
2022-12-17T01:30:36.721Z,168.05
2022-12-17T01:33:26.785Z,161.27
2022-12-17T01:36:14.009Z,158.82
2022-12-17T01:39:01.417Z,161.15
2022-12-17T01:41:48.952Z,157.53
2022-12-17T01:44:17.990Z,164.15
2022-12-17T01:47:06.284Z,167.50
2022-12-17T01:49:57.288Z,167.73
2022-12-17T01:52:44.831Z,178.75
2022-12-17T01:55:32.959Z,184.45
2022-12-17T01:58:19.993Z,177.30
2022-12-17T02:01:08.633Z,177.50
2022-12-17T02:03:54.640Z,177.40
2022-12-17T02:06:46.448Z,169.57
2022-12-17T02:09:40.792Z,177.75
2022-12-17T02:12:29.998Z,176.27
2022-12-17T02:15:16.114Z,178.48
2022-12-17T02:18:05.316Z,184.98
2022-12-17T02:20:54.819Z,173.68
2022-12-17T02:23:51.055Z,173.35
2022-12-17T02:26:49.389Z,176.60
2022-12-17T02:29:36.844Z,187.65
2022-12-17T02:32:24.535Z,181.82
2022-12-17T02:35:11.434Z,180.90
2022-12-17T02:38:02.170Z,174.65
2022-12-17T02:40:49.358Z,175.65
2022-12-17T02:43:39.049Z,181.27
2022-12-17T02:46:26.142Z,182.48
2022-12-17T02:49:12.848Z,180.45
2022-12-17T02:52:02.652Z,180.27
2022-12-17T02:54:49.041Z,179.60
2022-12-17T02:57:35.294Z,177.90
2022-12-17T03:00:29.579Z,180.90
2022-12-17T03:03:16.019Z,172.10
2022-12-17T03:06:04.024Z,178.95
2022-12-17T03:08:51.469Z,178.48
2022-12-17T03:11:51.794Z,176.90
2022-12-17T03:14:38.047Z,180.17
2022-12-17T03:17:29.770Z,141.70
2022-12-17T03:20:16.531Z,188.20
2022-12-17T03:23:03.922Z,175.98
2022-12-17T03:25:50.057Z,187.05
2022-12-17T03:28:37.664Z,185.07
2022-12-17T03:31:24.160Z,181.85
2022-12-17T03:34:15.634Z,178.13
2022-12-17T03:37:02.630Z,187.75
2022-12-17T03:39:52.194Z,184.20
2022-12-17T03:42:39.143Z,183.93
2022-12-17T03:45:28.700Z,174.45
2022-12-17T03:48:22.234Z,180.05
2022-12-17T03:51:08.044Z,181.07
2022-12-17T03:53:57.755Z,178.93
2022-12-17T03:56:44.344Z,178.10
2022-12-17T04:02:26.179Z,166.15
2022-12-17T04:05:19.658Z,170.30
2022-12-17T04:08:06.951Z,178.63
2022-12-17T04:10:58.259Z,167.75
2022-12-17T04:13:45.346Z,164.80
2022-12-17T04:16:32.239Z,171.68
2022-12-17T04:22:06.339Z,182.10
2022-12-17T04:24:52.872Z,176.93
2022-12-17T04:30:32.117Z,177.60
2022-12-17T04:33:19.432Z,165.73
2022-12-17T04:36:07.868Z,176.70
2022-12-17T04:38:55.358Z,170.68
2022-12-17T04:41:41.721Z,166.37
2022-12-17T04:44:31.134Z,169.05
2022-12-17T04:47:18.262Z,164.40
2022-12-17T04:50:05.236Z,171.05
2022-12-17T04:52:52.359Z,167.93
2022-12-17T04:55:38.891Z,165.55
2022-12-17T05:01:16.699Z,169.68
2022-12-17T05:04:02.980Z,164.23
2022-12-17T05:06:50.577Z,154.13
2022-12-17T05:09:37.354Z,156.75
2022-12-17T05:12:23.723Z,160.48
2022-12-17T05:15:10.807Z,160.30
2022-12-17T05:18:03.811Z,158.40
2022-12-17T05:20:49.898Z,159.60
2022-12-17T05:23:37.228Z,162.55
2022-12-17T05:26:29.146Z,164.55
2022-12-17T05:29:28.187Z,153.02
2022-12-17T05:32:17.284Z,162.00
2022-12-17T05:35:07.931Z,157.05
2022-12-17T05:37:54.090Z,155.68
2022-12-17T05:40:40.959Z,159.90
2022-12-17T05:43:28.222Z,152.00
2022-12-17T05:46:15.587Z,148.90
2022-12-17T05:49:04.983Z,154.33
2022-12-17T05:51:54.887Z,149.07
2022-12-17T05:54:42.419Z,147.20
2022-12-17T05:57:28.824Z,157.77
2022-12-17T06:00:15.784Z,149.20
2022-12-17T06:03:02.800Z,161.53
2022-12-17T06:05:50.140Z,161.75
2022-12-17T06:08:49.318Z,159.63
2022-12-17T06:11:36.971Z,155.50
2022-12-17T06:14:23.825Z,155.88
2022-12-17T06:17:11.387Z,155.02
2022-12-17T06:19:58.766Z,159.57
2022-12-17T06:22:45.171Z,157.50
2022-12-17T06:25:36.371Z,169.00
2022-12-17T06:28:23.320Z,159.48
2022-12-17T06:31:10.240Z,157.43
2022-12-17T06:33:56.960Z,150.43
2022-12-17T06:36:43.747Z,155.63
2022-12-17T06:39:31.007Z,158.15
2022-12-17T06:42:20.579Z,150.82
2022-12-17T06:45:07.641Z,154.80
2022-12-17T06:47:54.227Z,156.95
2022-12-17T06:53:27.232Z,148.98
2022-12-17T06:58:59.035Z,154.65
2022-12-17T07:01:49.232Z,165.10
2022-12-17T07:04:36.646Z,155.45
2022-12-17T07:07:23.499Z,163.68
2022-12-17T07:10:14.136Z,155.53
2022-12-17T07:13:01.512Z,149.90
2022-12-17T07:15:48.346Z,152.30
2022-12-17T07:18:37.892Z,157.55
2022-12-17T07:21:25.504Z,153.25
2022-12-17T07:24:13.271Z,154.55
2022-12-17T07:27:00.309Z,149.23
2022-12-17T07:29:46.864Z,161.70
2022-12-17T07:32:35.987Z,157.17
2022-12-17T07:35:26.608Z,144.25
2022-12-17T07:38:16.110Z,149.70
2022-12-17T07:41:03.345Z,156.80
2022-12-17T07:43:53.176Z,154.98
2022-12-17T07:46:39.967Z,150.38
2022-12-17T07:49:27.629Z,148.60
2022-12-17T07:52:19.024Z,146.32
2022-12-17T07:55:06.938Z,143.27
2022-12-17T07:57:56.059Z,144.43
2022-12-17T08:00:49.007Z,128.50
2022-12-17T08:03:38.865Z,127.15
2022-12-17T08:06:26.711Z,131.70
2022-12-17T08:09:16.093Z,111.93
2022-12-17T08:12:02.787Z,112.33
2022-12-17T08:14:50.027Z,108.55
2022-12-17T08:17:36.757Z,105.07
2022-12-17T08:20:37.740Z,104.65
2022-12-17T08:23:25.748Z,103.23
2022-12-17T08:26:15.124Z,98.30
2022-12-17T08:29:01.710Z,105.27
2022-12-17T08:34:34.783Z,95.10
2022-12-17T08:40:07.770Z,105.40
2022-12-17T08:42:57.022Z,99.15
2022-12-17T08:45:44.392Z,103.70
2022-12-17T08:48:31.399Z,113.50
2022-12-17T08:51:18.069Z,109.80
2022-12-17T08:54:04.961Z,96.35
2022-12-17T08:56:51.977Z,108.55
2022-12-17T08:59:41.656Z,118.43
2022-12-17T09:02:28.072Z,99.90
2022-12-17T09:05:14.741Z,99.65
2022-12-17T09:08:14.583Z,96.45
2022-12-17T09:11:01.210Z,105.27
2022-12-17T09:16:36.430Z,98.18
2022-12-17T09:19:23.198Z,106.50
2022-12-17T09:22:10.007Z,93.13
2022-12-17T09:24:58.007Z,103.50
2022-12-17T09:27:45.670Z,92.57
2022-12-17T09:30:31.975Z,98.72
2022-12-17T09:33:21.651Z,98.22
2022-12-17T09:36:07.750Z,99.53
2022-12-17T09:38:53.918Z,91.65
2022-12-17T09:41:41.853Z,100.80
2022-12-17T09:44:33.273Z,109.35
2022-12-17T09:47:26.328Z,91.95
2022-12-17T09:50:15.675Z,97.30
2022-12-17T09:53:01.835Z,97.32
2022-12-17T09:55:50.355Z,91.45
2022-12-17T09:58:38.045Z,96.80
2022-12-17T10:01:29.021Z,89.20
2022-12-17T10:04:21.451Z,97.15
2022-12-17T10:07:11.080Z,100.60
2022-12-17T10:09:58.013Z,98.00
2022-12-17T10:12:45.314Z,100.55
2022-12-17T10:15:31.929Z,107.25
2022-12-17T10:21:12.803Z,110.55
2022-12-17T10:24:08.103Z,106.80
2022-12-17T10:26:55.062Z,108.63
2022-12-17T10:29:47.474Z,102.30
2022-12-17T10:32:34.023Z,107.97
2022-12-17T10:35:23.427Z,102.70
2022-12-17T10:38:10.059Z,103.45
2022-12-17T10:43:46.637Z,107.38
2022-12-17T10:46:39.944Z,115.93
2022-12-17T10:49:28.566Z,130.60
2022-12-17T10:52:20.840Z,123.33
2022-12-17T10:55:07.064Z,119.50
2022-12-17T10:57:57.139Z,126.53
2022-12-17T11:00:49.735Z,120.82
2022-12-17T11:03:45.446Z,108.30
2022-12-17T11:06:38.856Z,110.33
2022-12-17T11:09:32.768Z,103.90
2022-12-17T11:12:27.118Z,105.25
2022-12-17T11:15:16.005Z,103.00
2022-12-17T11:18:11.165Z,100.67
2022-12-17T11:21:03.024Z,109.00
2022-12-17T11:23:50.099Z,110.38
2022-12-17T11:26:39.219Z,109.88
2022-12-17T11:29:27.402Z,115.32
2022-12-17T11:32:47.509Z,108.17
2022-12-17T11:35:41.058Z,103.22
2022-12-17T11:38:34.246Z,108.07
2022-12-17T11:41:24.940Z,117.07
2022-12-17T11:44:15.203Z,116.38
2022-12-17T11:47:06.290Z,110.05
2022-12-17T11:49:57.687Z,110.22
2022-12-17T11:52:49.488Z,101.67
2022-12-17T11:55:38.741Z,113.43
2022-12-17T11:58:28.940Z,119.82
2022-12-17T12:01:18.264Z,105.28
2022-12-17T12:04:08.119Z,106.10
2022-12-17T12:06:58.715Z,108.40
2022-12-17T12:09:50.234Z,98.18
2022-12-17T12:12:43.382Z,99.27
2022-12-17T12:15:36.589Z,99.40
2022-12-17T12:18:24.573Z,108.17
2022-12-17T12:21:32.419Z,102.10
2022-12-17T12:24:25.145Z,103.25
2022-12-17T12:27:27.122Z,100.20
2022-12-17T12:30:13.119Z,103.47
2022-12-17T12:33:04.356Z,97.45
2022-12-17T12:35:54.044Z,96.63
2022-12-17T12:38:46.159Z,107.60
2022-12-17T12:41:34.853Z,103.30
2022-12-17T12:44:31.766Z,96.60
2022-12-17T12:47:20.558Z,89.88
2022-12-17T12:50:09.645Z,89.68
2022-12-17T12:52:56.173Z,86.40
2022-12-17T12:55:55.132Z,87.88
2022-12-17T12:58:42.792Z,92.17
2022-12-17T13:01:32.601Z,92.70
2022-12-17T13:04:43.062Z,93.57
2022-12-17T13:07:27.578Z,91.55
2022-12-17T13:10:03.243Z,89.15
2022-12-17T13:12:42.938Z,93.57
2022-12-17T13:15:26.042Z,88.60
2022-12-17T13:18:17.396Z,86.45
2022-12-17T13:21:01.144Z,89.13
2022-12-17T13:23:34.877Z,87.70
2022-12-17T13:26:21.587Z,93.15
2022-12-17T13:29:13.618Z,92.65
2022-12-17T13:32:05.919Z,86.30
2022-12-17T13:34:49.782Z,89.00
2022-12-17T13:37:29.633Z,91.50
2022-12-17T13:40:08.056Z,85.38
2022-12-17T13:42:42.424Z,88.53
2022-12-17T13:45:18.122Z,99.97
2022-12-17T13:47:56.645Z,93.65
2022-12-17T13:50:35.297Z,95.03
2022-12-17T13:53:13.564Z,89.75
2022-12-17T13:55:52.682Z,96.75
2022-12-17T13:58:25.051Z,85.40
2022-12-17T14:01:09.976Z,101.87
2022-12-17T14:06:43.584Z,100.80
2022-12-17T14:09:18.139Z,92.05
2022-12-17T14:12:10.270Z,95.90
2022-12-17T14:14:44.068Z,93.22
2022-12-17T14:17:21.531Z,89.13
2022-12-17T14:20:01.123Z,83.05
2022-12-17T14:22:46.297Z,87.80
2022-12-17T14:25:24.966Z,98.47
2022-12-17T14:28:03.404Z,86.85
2022-12-17T14:30:56.384Z,83.47
2022-12-17T14:36:10.093Z,86.47
2022-12-17T14:38:53.347Z,81.87
2022-12-17T14:41:42.391Z,83.75
2022-12-17T14:44:23.569Z,82.78
2022-12-17T14:47:10.299Z,79.23
2022-12-17T14:49:55.759Z,82.07
2022-12-17T14:52:42.052Z,83.65
2022-12-17T14:55:55.604Z,78.22
2022-12-17T14:58:31.343Z,73.40
2022-12-17T15:01:09.282Z,66.95
2022-12-17T15:03:44.281Z,78.03
2022-12-17T15:06:19.737Z,65.15
2022-12-17T15:08:54.092Z,65.25
2022-12-17T15:11:31.137Z,63.90
2022-12-17T15:14:06.549Z,72.82
2022-12-17T15:16:40.797Z,69.75
2022-12-17T15:19:14.861Z,76.75
2022-12-17T15:21:49.577Z,72.47
2022-12-17T15:24:23.765Z,76.73
2022-12-17T15:27:00.478Z,69.25
2022-12-17T15:29:34.893Z,67.30
2022-12-17T15:32:10.075Z,69.32
2022-12-17T15:34:45.101Z,72.87
2022-12-17T15:37:25.265Z,66.32
2022-12-17T15:40:00.748Z,70.05
2022-12-17T15:42:49.849Z,70.75
2022-12-17T15:45:23.755Z,80.53
2022-12-17T15:47:58.546Z,70.32
2022-12-17T15:50:32.363Z,61.22
2022-12-17T15:53:06.552Z,64.63
2022-12-17T15:55:40.644Z,64.55
2022-12-17T15:58:19.335Z,66.18
2022-12-17T16:00:54.534Z,63.40
2022-12-17T16:03:28.416Z,65.57
2022-12-17T16:06:04.251Z,62.70
2022-12-17T16:08:40.685Z,69.13
2022-12-17T16:11:16.479Z,63.73
2022-12-17T16:13:56.911Z,61.35
2022-12-17T16:16:32.860Z,65.30
2022-12-17T16:19:07.945Z,69.00
2022-12-17T16:21:46.699Z,62.67
2022-12-17T16:24:21.309Z,71.32
2022-12-17T16:26:59.414Z,71.50
2022-12-17T16:29:34.931Z,71.75
2022-12-17T16:32:12.612Z,76.40
2022-12-17T16:34:47.074Z,77.43
2022-12-17T16:37:21.901Z,71.40
2022-12-17T16:40:00.179Z,72.45
2022-12-17T16:42:34.437Z,64.57
2022-12-17T16:45:10.233Z,73.60
2022-12-17T16:47:47.059Z,70.70
2022-12-17T16:50:21.492Z,72.25
2022-12-17T16:52:56.090Z,72.55
2022-12-17T16:55:30.372Z,76.45
2022-12-17T16:58:05.258Z,76.63
2022-12-17T17:00:39.769Z,66.60
2022-12-17T17:03:17.591Z,67.72
2022-12-17T17:05:51.511Z,66.25
2022-12-17T17:08:25.961Z,71.78
2022-12-17T17:11:01.157Z,72.17
2022-12-17T17:13:35.929Z,70.70
2022-12-17T17:16:11.514Z,64.68
2022-12-17T17:18:48.135Z,71.93
2022-12-17T17:21:30.536Z,74.60
2022-12-17T17:24:05.308Z,70.07
2022-12-17T17:26:39.784Z,69.85
2022-12-17T17:29:11.730Z,66.13
2022-12-17T17:34:42.777Z,61.95
2022-12-17T17:37:16.698Z,59.55
2022-12-17T17:39:54.209Z,66.40
2022-12-17T17:42:30.536Z,63.40
2022-12-17T17:45:06.756Z,66.50
2022-12-17T17:50:21.455Z,60.65
2022-12-17T17:52:56.960Z,67.60
2022-12-17T17:55:33.436Z,66.27
2022-12-17T17:58:11.009Z,57.05
2022-12-17T18:00:46.525Z,61.33
2022-12-17T18:03:21.724Z,63.78
2022-12-17T18:06:03.902Z,65.90
2022-12-17T18:08:39.035Z,64.55
2022-12-17T18:11:21.507Z,69.37
2022-12-17T18:13:57.029Z,71.70
2022-12-17T18:16:33.293Z,60.90
2022-12-17T18:19:10.209Z,63.40
2022-12-17T18:21:48.266Z,61.45
2022-12-17T18:24:23.613Z,60.67
2022-12-17T18:26:59.233Z,70.70
2022-12-17T18:29:36.655Z,56.50
2022-12-17T18:32:12.612Z,55.85
2022-12-17T18:37:27.367Z,55.55
2022-12-17T18:40:04.873Z,46.05
2022-12-17T18:42:53.715Z,55.27
2022-12-17T18:45:29.119Z,52.40
2022-12-17T18:48:05.381Z,41.95
2022-12-17T18:50:42.204Z,51.13
2022-12-17T18:53:20.418Z,55.58
2022-12-17T18:55:58.878Z,53.65
2022-12-17T18:58:36.038Z,59.28
2022-12-17T19:01:22.562Z,59.47
2022-12-17T19:03:57.738Z,57.80
2022-12-17T19:06:34.992Z,70.07
2022-12-17T19:09:20.962Z,58.37
2022-12-17T19:11:56.218Z,53.53
2022-12-17T19:14:36.445Z,58.60
2022-12-17T19:17:13.119Z,54.47
2022-12-17T19:19:49.172Z,53.17
2022-12-17T19:22:25.317Z,44.00
2022-12-17T19:27:38.192Z,48.83
2022-12-17T19:30:16.369Z,51.10
2022-12-17T19:32:51.985Z,53.70
2022-12-17T19:35:28.173Z,56.13
2022-12-17T19:40:43.144Z,55.20
2022-12-17T19:43:19.172Z,61.42
2022-12-17T19:45:54.514Z,59.40
2022-12-17T19:48:28.826Z,61.95
2022-12-17T19:51:02.785Z,63.17
2022-12-17T19:53:36.907Z,63.58
2022-12-17T19:56:19.266Z,67.73
2022-12-17T19:58:54.875Z,67.43
2022-12-17T20:01:30.226Z,62.80
2022-12-17T20:04:04.535Z,73.60
2022-12-17T20:06:38.694Z,74.83
2022-12-17T20:09:14.922Z,71.40
2022-12-17T20:11:52.229Z,76.78
2022-12-17T20:14:28.010Z,66.10
2022-12-17T20:17:05.258Z,67.65
2022-12-17T20:19:38.980Z,80.18
2022-12-17T20:22:13.492Z,78.70
2022-12-17T20:24:50.616Z,74.95
2022-12-17T20:27:28.157Z,83.63
2022-12-17T20:30:04.406Z,73.85
2022-12-17T20:32:39.683Z,69.82
2022-12-17T20:35:14.229Z,69.32
2022-12-17T20:37:49.927Z,78.10
2022-12-17T20:40:24.926Z,77.90
2022-12-17T20:43:04.089Z,82.60
2022-12-17T20:45:40.535Z,75.90
2022-12-17T20:48:16.542Z,72.57
2022-12-17T20:53:26.935Z,68.22
2022-12-17T20:56:05.196Z,68.57
2022-12-17T20:58:42.897Z,72.40
2022-12-17T21:01:20.726Z,66.22
2022-12-17T21:03:55.890Z,83.88
2022-12-17T21:06:32.784Z,83.30
2022-12-17T21:09:08.927Z,78.10
2022-12-17T21:14:21.538Z,72.90
2022-12-17T21:16:58.808Z,76.65
2022-12-17T21:19:34.255Z,72.45
2022-12-17T21:22:11.748Z,84.07
2022-12-17T21:24:49.888Z,80.32
2022-12-17T21:27:26.620Z,90.35
2022-12-17T21:30:10.266Z,93.18
2022-12-17T21:32:49.262Z,87.88
2022-12-17T21:35:26.944Z,78.32
2022-12-17T21:38:02.377Z,82.20
2022-12-17T21:40:36.194Z,84.28
2022-12-17T21:43:11.291Z,80.35
2022-12-17T21:45:49.478Z,80.53
2022-12-17T21:48:25.753Z,74.85
2022-12-17T21:51:01.412Z,77.83
2022-12-17T21:53:38.020Z,72.20
2022-12-17T21:56:13.646Z,75.00
2022-12-17T21:58:54.223Z,68.90
2022-12-17T22:01:34.068Z,70.50
2022-12-17T22:04:09.892Z,61.95
2022-12-17T22:06:53.615Z,64.78
2022-12-17T22:10:01.017Z,70.40
2022-12-17T22:12:50.051Z,70.88
2022-12-17T22:15:26.677Z,75.43
2022-12-17T22:18:10.160Z,70.18
2022-12-17T22:20:47.443Z,65.22
2022-12-17T22:23:22.586Z,64.45
2022-12-17T22:25:59.029Z,66.63
2022-12-17T22:28:36.205Z,58.22
2022-12-17T22:31:26.309Z,67.45
2022-12-17T22:35:12.140Z,64.63
2022-12-17T22:40:32.778Z,57.97
2022-12-17T22:44:36.311Z,62.35
2022-12-17T22:44:43.342Z,63.77
2022-12-17T22:45:59.435Z,58.30
2022-12-17T22:48:36.345Z,60.13
2022-12-17T22:51:22.900Z,61.33
2022-12-17T22:54:12.040Z,60.45
2022-12-17T22:57:31.461Z,74.28
2022-12-17T22:59:42.257Z,69.13
2022-12-17T23:02:18.249Z,67.57
2022-12-17T23:04:55.985Z,69.10
2022-12-17T23:07:35.619Z,61.35
2022-12-17T23:10:12.200Z,62.88
2022-12-17T23:12:57.842Z,51.40
2022-12-17T23:15:36.809Z,51.47
2022-12-17T23:18:14.583Z,48.05
2022-12-17T23:20:49.472Z,47.72
2022-12-17T23:23:29.615Z,54.23
2022-12-17T23:26:10.287Z,49.53
2022-12-17T23:28:45.230Z,48.33
2022-12-17T23:31:21.134Z,44.40
2022-12-17T23:33:58.476Z,44.17
2022-12-17T23:36:34.677Z,46.30
2022-12-17T23:39:13.574Z,44.30
2022-12-17T23:41:48.491Z,47.33
2022-12-17T23:44:25.090Z,48.92
2022-12-17T23:49:34.350Z,52.05
2022-12-17T23:52:10.929Z,55.95
2022-12-17T23:54:49.118Z,51.10
2022-12-17T23:57:24.946Z,54.95
2022-12-17T23:59:57.507Z,53.03
